• Join FlightAware (Why Join?)
  • Login
  • US Flag 
10:25AM EDT


 

Airport Tracker/Info


-or-


 

Live Flight TrackerFlight Track Log ✈ N232CF ✈ 12-Jun-2013 ✈ KEVV - K24

Flight Track Log - Related Links

Times and Time Zones

All times are in EDT time to prevent confusion due to time zone crossing. See the N232CF flight status page for this flight to view local times or setup timezone preferences in your user account.

Time Position Orientation Groundspeed Altitude Reporting Facility
EDT Latitude Longitude Course Direction KTS MPH feet Rate Location/Type
05:31PM 37.9892 -87.4983 120° Southeast 240 276 4,600  Level Indianapolis Center
05:32PM 37.9592 -87.4033 112° Southeast 290 334 6,600 2,160 Climbing Indianapolis Center
05:33PM 37.9175 -87.3039 118° Southeast 315 362 9,100 2,580 Climbing Indianapolis Center
05:34PM 37.8658 -87.1739 117° Southeast 343 395 12,000 1,860 Climbing Indianapolis Center
05:35PM 37.8178 -87.0556 117° Southeast 370 426 13,000 480 Climbing Indianapolis Center
05:36PM 37.8067 -86.9675 120° Southeast  Level Estimated
05:36PM 37.7636 -86.9158 116° Southeast 435 501 13,000  Level Indianapolis Center
05:37PM 37.7058 -86.7758 118° Southeast 447 514 13,000  Level Indianapolis Center
05:38PM 37.6478 -86.6342 117° Southeast 453 521 13,000  Level Indianapolis Center
05:39PM 37.5856 -86.4828 117° Southeast 445 512 13,000  Level Indianapolis Center
05:40PM 37.5286 -86.3444 117° Southeast 441 507 13,100  Climbing Indianapolis Center
05:41PM 37.4719 -86.2047 117° Southeast 443 510 13,100  Level Indianapolis Center
05:42PM 37.4142 -86.0647 117° Southeast 444 511 13,100 -60 Level Indianapolis Center
05:43PM 37.3625 -85.9164 114° Southeast 456 525 13,000 -900 Descending Indianapolis Center
05:44PM 37.3217 -85.7592 108° East 447 514 11,300 -1,380 Descending Indianapolis Center
05:45PM 37.2739 -85.6197 113° Southeast 392 451 10,200 -1,440 Descending Indianapolis Center
05:46PM 37.2361 -85.5128 114° Southeast 333 383 8,400 -1,740 Descending Indianapolis Center
05:47PM 37.2006 -85.4103 114° Southeast 321 369 6,700 -1,740 Descending Indianapolis Center
05:48PM 37.1667 -85.3108 113° Southeast 313 360 4,900 -1,620 Descending Indianapolis Center
05:49PM 37.1333 -85.2172 114° Southeast 303 349 3,400 -1,500 Descending Indianapolis Center